createdAt,value
2023-07-02T00:00:33.528Z,97315.75
2023-07-02T00:03:02.890Z,97321.38
2023-07-02T00:05:31.933Z,97317.84
2023-07-02T00:08:02.100Z,97319.69
2023-07-02T00:10:30.968Z,97314.31
2023-07-02T00:12:59.685Z,97317.00
2023-07-02T00:15:28.705Z,97309.75
2023-07-02T00:17:58.447Z,97312.66
2023-07-02T00:20:27.420Z,97310.78
2023-07-02T00:22:57.443Z,97308.91
2023-07-02T00:25:27.474Z,97305.38
2023-07-02T00:27:56.196Z,97303.50
2023-07-02T00:30:24.968Z,97303.75
2023-07-02T00:32:53.727Z,97302.06
2023-07-02T00:35:22.670Z,97315.34
2023-07-02T00:37:51.842Z,97309.16
2023-07-02T00:40:20.585Z,97312.03
2023-07-02T00:42:50.709Z,97310.16
2023-07-02T00:45:19.626Z,97302.06
2023-07-02T00:47:48.302Z,97302.06
2023-07-02T00:50:17.052Z,97304.56
2023-07-02T00:52:45.765Z,97306.44
2023-07-02T00:55:14.506Z,97311.84
2023-07-02T00:57:47.707Z,97306.44
2023-07-02T01:00:18.480Z,97307.47
2023-07-02T01:02:58.473Z,97307.25
2023-07-02T01:05:27.898Z,97306.44
2023-07-02T01:07:56.798Z,97297.53
2023-07-02T01:10:25.909Z,97300.22
2023-07-02T01:12:54.938Z,97298.34
2023-07-02T01:15:24.980Z,97301.03
2023-07-02T01:17:54.246Z,97290.25
2023-07-02T01:20:24.373Z,97299.38
2023-07-02T01:22:53.636Z,97296.69
2023-07-02T01:25:25.884Z,97294.84
2023-07-02T01:27:56.768Z,97296.69
2023-07-02T01:30:25.844Z,97288.59
2023-07-02T01:32:54.865Z,97286.72
2023-07-02T01:35:25.333Z,97290.47
2023-07-02T01:37:54.777Z,97285.88
2023-07-02T01:40:23.583Z,97285.06
2023-07-02T01:42:52.445Z,97286.94
2023-07-02T01:45:21.228Z,97284.25
2023-07-02T01:47:50.040Z,97278.03
2023-07-02T01:50:18.753Z,97281.53
2023-07-02T01:52:48.849Z,97284.25
2023-07-02T01:55:18.774Z,97278.84
2023-07-02T01:57:47.660Z,97278.84
2023-07-02T02:00:17.120Z,97278.84
2023-07-02T02:02:46.277Z,97277.78
2023-07-02T02:05:15.057Z,97267.22
2023-07-02T02:07:43.917Z,97265.34
2023-07-02T02:10:15.917Z,97271.81
2023-07-02T02:12:44.946Z,97275.34
2023-07-02T02:15:15.493Z,97268.06
2023-07-02T02:17:44.300Z,97269.94
2023-07-02T02:20:13.906Z,97266.41
2023-07-02T02:22:42.630Z,97265.34
2023-07-02T02:25:12.869Z,97262.66
2023-07-02T02:27:41.567Z,97258.31
2023-07-02T02:30:10.743Z,97255.63
2023-07-02T02:32:39.603Z,97258.31
2023-07-02T02:35:09.802Z,97255.63
2023-07-02T02:37:40.630Z,97254.81
2023-07-02T02:40:11.261Z,97261.03
2023-07-02T02:42:41.418Z,97261.03
2023-07-02T02:45:11.059Z,97261.03
2023-07-02T02:47:39.862Z,97260.19
2023-07-02T02:50:10.955Z,97268.28
2023-07-02T02:52:39.727Z,97271.00
2023-07-02T02:55:09.639Z,97269.31
2023-07-02T02:57:38.429Z,97270.13
2023-07-02T03:00:10.686Z,97266.63
2023-07-02T03:02:40.208Z,97264.75
2023-07-02T03:05:09.706Z,97267.69
2023-07-02T03:07:38.466Z,97269.31
2023-07-02T03:10:08.409Z,97264.16
2023-07-02T03:12:37.079Z,97265.81
2023-07-02T03:15:08.148Z,97276.59
2023-07-02T03:17:36.854Z,97277.66
2023-07-02T03:20:06.209Z,97274.97
2023-07-02T03:22:34.884Z,97276.59
2023-07-02T03:25:03.628Z,97273.06
2023-07-02T03:27:32.380Z,97269.56
2023-07-02T03:30:01.106Z,97273.28
2023-07-02T03:32:31.192Z,97281.38
2023-07-02T03:34:59.962Z,97275.97
2023-07-02T03:37:28.648Z,97274.97
2023-07-02T03:39:57.328Z,97280.56
2023-07-02T03:42:26.008Z,97278.69
2023-07-02T03:44:54.682Z,97284.91
2023-07-02T03:47:23.426Z,97280.56
2023-07-02T03:49:53.545Z,97282.44
2023-07-02T03:52:22.306Z,97286.16
2023-07-02T03:54:51.090Z,97288.66
2023-07-02T03:57:19.739Z,97287.84
2023-07-02T03:59:48.583Z,97285.94
2023-07-02T04:02:17.364Z,97292.41
2023-07-02T04:04:46.190Z,97293.22
2023-07-02T04:07:17.070Z,97296.94
2023-07-02T04:09:45.697Z,97289.09
2023-07-02T04:12:14.462Z,97295.13
2023-07-02T04:14:43.557Z,97297.84
2023-07-02T04:17:12.164Z,97292.69
2023-07-02T04:19:40.929Z,97292.69
2023-07-02T04:22:09.644Z,97295.38
2023-07-02T04:24:39.508Z,97306.81
2023-07-02T04:27:32.128Z,97301.41
2023-07-02T04:29:58.708Z,97305.75
2023-07-02T04:32:27.159Z,97303.50
2023-07-02T04:34:55.607Z,97307.63
2023-07-02T04:37:24.292Z,97307.69
2023-07-02T04:39:54.141Z,97301.28
2023-07-02T04:42:22.629Z,97315.00
2023-07-02T04:44:51.018Z,97311.91
2023-07-02T04:47:19.529Z,97318.31
2023-07-02T04:49:47.977Z,97314.38
2023-07-02T04:52:16.446Z,97323.47
2023-07-02T04:54:44.859Z,97322.38
2023-07-02T04:57:15.915Z,97331.69
2023-07-02T04:59:44.511Z,97322.56
2023-07-02T05:02:12.999Z,97321.50
2023-07-02T05:04:41.465Z,97324.81
2023-07-02T05:07:09.894Z,97324.81
2023-07-02T05:09:38.320Z,97321.28
2023-07-02T05:12:07.311Z,97322.13
2023-07-02T05:14:37.108Z,97315.69
2023-07-02T05:17:06.325Z,97327.50
2023-07-02T05:19:34.860Z,97330.00
2023-07-02T05:22:03.341Z,97335.41
2023-07-02T05:24:31.792Z,97332.09
2023-07-02T05:27:00.242Z,97341.00
2023-07-02T05:29:28.624Z,97339.97
2023-07-02T05:31:58.497Z,97343.50
2023-07-02T05:34:26.973Z,97348.06
2023-07-02T05:36:56.138Z,97348.06
2023-07-02T05:39:24.670Z,97351.34
2023-07-02T05:41:53.141Z,97366.50
2023-07-02T05:44:21.532Z,97363.81
2023-07-02T05:46:50.070Z,97361.94
2023-07-02T05:49:19.861Z,97362.75
2023-07-02T05:51:48.325Z,97361.94
2023-07-02T05:54:16.764Z,97363.81
2023-07-02T05:56:45.221Z,97363.56
2023-07-02T05:59:15.985Z,97374.38
2023-07-02T06:01:46.018Z,97385.41
2023-07-02T06:04:14.807Z,97376.25
2023-07-02T06:06:44.843Z,97376.44
2023-07-02T06:09:13.295Z,97380.81
2023-07-02T06:11:41.730Z,97378.94
2023-07-02T06:14:10.195Z,97368.97
2023-07-02T06:16:38.737Z,97368.97
2023-07-02T06:19:07.190Z,97370.66
2023-07-02T06:21:35.605Z,97362.56
2023-07-02T06:24:06.158Z,97371.47
2023-07-02T06:26:34.636Z,97368.97
2023-07-02T06:29:03.101Z,97375.19
2023-07-02T06:31:31.585Z,97377.69
2023-07-02T06:34:00.074Z,97381.63
2023-07-02T06:36:28.541Z,97373.75
2023-07-02T06:38:56.960Z,97381.03
2023-07-02T06:41:26.740Z,97381.47
2023-07-02T06:43:55.207Z,97380.84
2023-07-02T06:46:23.754Z,97386.25
2023-07-02T06:48:52.193Z,97382.78
2023-07-02T06:51:22.139Z,97388.06
2023-07-02T06:53:50.664Z,97384.72
2023-07-02T06:56:19.076Z,97384.06
2023-07-02T06:58:49.024Z,97386.75
2023-07-02T07:01:17.525Z,97393.63
2023-07-02T07:03:46.132Z,97402.41
2023-07-02T07:06:14.599Z,97398.84
2023-07-02T07:08:43.111Z,97398.41
2023-07-02T07:11:11.629Z,97401.53
2023-07-02T07:13:40.097Z,97411.09
2023-07-02T07:16:09.928Z,97407.41
2023-07-02T07:18:38.686Z,97414.25
2023-07-02T07:21:07.169Z,97416.31
2023-07-02T07:23:35.690Z,97421.53
2023-07-02T07:26:04.177Z,97423.59
2023-07-02T07:28:32.684Z,97424.38
2023-07-02T07:31:01.103Z,97427.72
2023-07-02T07:33:30.914Z,97429.19
2023-07-02T07:35:59.509Z,97430.38
2023-07-02T07:38:28.236Z,97440.97
2023-07-02T07:40:56.704Z,97442.41
2023-07-02T07:43:25.167Z,97447.19
2023-07-02T07:45:53.758Z,97449.06
2023-07-02T07:48:22.598Z,97455.09
2023-07-02T07:50:52.432Z,97461.72
2023-07-02T07:53:20.844Z,97465.03
2023-07-02T07:55:49.306Z,97468.78
2023-07-02T07:58:17.808Z,97462.13
2023-07-02T08:00:46.305Z,97464.66
2023-07-02T08:03:14.846Z,97469.63
2023-07-02T08:05:43.484Z,97467.13
2023-07-02T08:08:13.274Z,97473.53
2023-07-02T08:10:41.689Z,97462.97
2023-07-02T08:13:10.777Z,97463.38
2023-07-02T08:15:40.364Z,97459.25
2023-07-02T08:18:10.313Z,97469.63
2023-07-02T08:20:38.810Z,97472.13
2023-07-02T08:23:07.239Z,97472.97
2023-07-02T08:25:37.143Z,97484.59
2023-07-02T08:28:05.925Z,97491.63
2023-07-02T08:30:34.378Z,97493.31
2023-07-02T08:33:02.884Z,97501.59
2023-07-02T08:35:31.632Z,97501.38
2023-07-02T08:38:00.043Z,97498.47
2023-07-02T08:40:29.807Z,97504.91
2023-07-02T08:43:01.891Z,97502.00
2023-07-02T08:45:30.981Z,97506.97
2023-07-02T08:47:59.748Z,97505.72
2023-07-02T08:50:28.171Z,97499.72
2023-07-02T08:52:56.793Z,97506.56
2023-07-02T08:55:25.348Z,97513.63
2023-07-02T08:57:56.014Z,97515.66
2023-07-02T09:00:26.024Z,97508.59
2023-07-02T09:02:55.660Z,97514.22
2023-07-02T09:05:24.266Z,97521.88
2023-07-02T09:07:55.068Z,97524.34
2023-07-02T09:10:31.861Z,97516.06
2023-07-02T09:13:07.324Z,97509.63
2023-07-02T09:15:41.311Z,97518.34
2023-07-02T09:18:20.329Z,97515.44
2023-07-02T09:20:49.145Z,97519.59
2023-07-02T09:23:17.990Z,97513.97
2023-07-02T09:25:46.549Z,97516.47
2023-07-02T09:28:19.772Z,97512.94
2023-07-02T09:30:56.748Z,97507.31
2023-07-02T09:33:26.421Z,97518.13
2023-07-02T09:35:55.219Z,97515.22
2023-07-02T09:38:23.834Z,97509.00
2023-07-02T09:40:53.811Z,97504.44
2023-07-02T09:43:23.037Z,97506.06
2023-07-02T09:45:53.337Z,97503.19
2023-07-02T09:48:25.253Z,97507.53
2023-07-02T09:50:53.713Z,97507.31
2023-07-02T09:53:22.216Z,97494.88
2023-07-02T09:55:50.621Z,97500.06
2023-07-02T09:58:19.119Z,97489.28
2023-07-02T10:00:48.284Z,97501.69
2023-07-02T10:03:17.141Z,97498.19
2023-07-02T10:05:47.173Z,97497.97
2023-07-02T10:08:18.279Z,97491.53
2023-07-02T10:10:46.960Z,97497.75
2023-07-02T10:13:15.682Z,97486.97
2023-07-02T10:15:44.144Z,97491.94
2023-07-02T10:18:12.645Z,97493.59
2023-07-02T10:20:42.558Z,97484.06
2023-07-02T10:23:12.385Z,97484.47
2023-07-02T10:25:42.701Z,97488.81
2023-07-02T10:28:17.273Z,97475.31
2023-07-02T10:30:46.051Z,97481.56
2023-07-02T10:33:15.494Z,97473.25
2023-07-02T10:35:46.176Z,97466.19
2023-07-02T10:38:18.088Z,97465.97
2023-07-02T10:40:46.841Z,97459.56
2023-07-02T10:43:15.633Z,97462.25
2023-07-02T10:45:44.116Z,97456.84
2023-07-02T10:48:12.725Z,97455.81
2023-07-02T10:50:41.298Z,97439.63
2023-07-02T10:53:18.601Z,97448.75
2023-07-02T10:55:47.575Z,97447.94
2023-07-02T10:58:16.821Z,97437.75
2023-07-02T11:00:48.757Z,97440.44
2023-07-02T11:03:21.083Z,97446.88
2023-07-02T11:05:50.319Z,97440.44
2023-07-02T11:08:21.061Z,97435.03
2023-07-02T11:10:49.580Z,97431.31
2023-07-02T11:13:18.883Z,97430.28
2023-07-02T11:15:48.512Z,97429.44
2023-07-02T11:18:19.355Z,97434.84
2023-07-02T11:20:48.552Z,97425.69
2023-07-02T11:23:23.192Z,97432.97
2023-07-02T11:25:59.491Z,97431.31
2023-07-02T11:28:28.482Z,97422.19
2023-07-02T11:30:57.316Z,97417.59
2023-07-02T11:33:36.704Z,97406.00
2023-07-02T11:36:05.960Z,97413.03
2023-07-02T11:38:36.717Z,97414.72
2023-07-02T11:41:05.650Z,97408.50
2023-07-02T11:43:35.357Z,97401.22
2023-07-02T11:46:04.033Z,97400.16
2023-07-02T11:48:32.503Z,97391.25
2023-07-02T11:51:01.010Z,97389.38
2023-07-02T11:53:29.521Z,97399.34
2023-07-02T11:55:59.401Z,97407.22
2023-07-02T11:58:27.893Z,97408.88
2023-07-02T12:00:56.596Z,97396.44
2023-07-02T12:03:25.032Z,97406.38
2023-07-02T12:05:53.703Z,97399.13
2023-07-02T12:08:22.140Z,97396.44
2023-07-02T12:10:50.683Z,97384.81
2023-07-02T12:13:22.056Z,97399.13
2023-07-02T12:15:51.258Z,97407.22
2023-07-02T12:18:19.849Z,97432.53
2023-07-02T12:20:48.410Z,97471.13
2023-07-02T12:23:17.018Z,97490.25
2023-07-02T12:25:45.484Z,97487.34
2023-07-02T12:28:14.021Z,97497.75
2023-07-02T12:30:44.014Z,97505.22
2023-07-02T12:33:12.630Z,97516.19
2023-07-02T12:35:41.147Z,97525.34
2023-07-02T12:38:10.083Z,97522.84
2023-07-02T12:40:39.766Z,97516.63
2023-07-02T12:43:08.310Z,97529.28
2023-07-02T12:45:36.827Z,97521.41
2023-07-02T12:48:07.331Z,97524.94
2023-07-02T12:50:35.804Z,97533.88
2023-07-02T12:53:04.304Z,97527.66
2023-07-02T12:55:32.971Z,97520.38
2023-07-02T12:58:01.444Z,97516.84
2023-07-02T13:00:29.858Z,97530.34
2023-07-02T13:03:04.353Z,97533.88
2023-07-02T13:05:35.741Z,97532.81
2023-07-02T13:08:04.516Z,97519.31
2023-07-02T13:10:32.956Z,97530.94
2023-07-02T13:13:09.973Z,97530.13
2023-07-02T13:15:42.730Z,97525.34
2023-07-02T13:18:11.150Z,97528.88
2023-07-02T13:20:40.959Z,97529.69
2023-07-02T13:23:09.379Z,97526.41
2023-07-02T13:25:37.961Z,97528.25
2023-07-02T13:28:06.713Z,97524.72
2023-07-02T13:30:35.137Z,97530.94
2023-07-02T13:33:03.610Z,97532.81
2023-07-02T13:35:32.667Z,97531.78
2023-07-02T13:38:02.570Z,97535.31
2023-07-02T13:40:30.992Z,97524.28
2023-07-02T13:42:59.522Z,97538.59
2023-07-02T13:45:27.979Z,97530.75
2023-07-02T13:47:57.704Z,97532.00
2023-07-02T13:50:26.152Z,97537.19
2023-07-02T13:52:54.593Z,97533.44
2023-07-02T13:55:28.718Z,97522.66
2023-07-02T13:57:58.369Z,97523.28
2023-07-02T14:00:28.456Z,97521.41
2023-07-02T14:02:57.137Z,97519.72
2023-07-02T14:05:25.913Z,97518.91
2023-07-02T14:07:54.486Z,97512.47
2023-07-02T14:10:23.305Z,97513.31
2023-07-02T14:12:51.930Z,97511.44
2023-07-02T14:15:20.552Z,97507.47
2023-07-02T14:17:50.456Z,97510.59
2023-07-02T14:20:19.161Z,97499.81
2023-07-02T14:22:49.046Z,97512.25
2023-07-02T14:25:24.997Z,97510.59
2023-07-02T14:28:00.998Z,97523.03
2023-07-02T14:30:29.514Z,97517.66
2023-07-02T14:32:59.380Z,97511.00
2023-07-02T14:35:29.262Z,97516.41
2023-07-02T14:37:57.786Z,97519.53
2023-07-02T14:40:26.378Z,97526.38
2023-07-02T14:42:54.965Z,97524.28
2023-07-02T14:45:23.472Z,97524.50
2023-07-02T14:47:52.083Z,97514.94
2023-07-02T14:50:21.861Z,97516.81
2023-07-02T14:52:50.394Z,97523.03
2023-07-02T14:55:18.961Z,97524.28
2023-07-02T14:57:47.494Z,97528.03
2023-07-02T15:00:17.092Z,97524.91
2023-07-02T15:02:45.697Z,97526.56
2023-07-02T15:05:14.840Z,97533.22
2023-07-02T15:07:44.730Z,97522.66
2023-07-02T15:10:13.251Z,97526.41
2023-07-02T15:12:41.741Z,97528.88
2023-07-02T15:15:11.021Z,97528.66
2023-07-02T15:17:39.656Z,97522.66
2023-07-02T15:20:09.343Z,97521.00
2023-07-02T15:22:38.215Z,97524.72
2023-07-02T15:25:09.268Z,97521.81
2023-07-02T15:27:37.888Z,97517.69
2023-07-02T15:30:08.511Z,97529.25
2023-07-02T15:32:36.981Z,97521.41
2023-07-02T15:35:06.532Z,97525.97
2023-07-02T15:37:35.025Z,97516.19
2023-07-02T15:40:03.499Z,97523.28
2023-07-02T15:42:34.091Z,97525.34
2023-07-02T15:45:03.035Z,97527.81
2023-07-02T15:47:32.312Z,97530.75
2023-07-02T15:50:02.308Z,97535.09
2023-07-02T15:52:30.906Z,97533.22
2023-07-02T15:54:59.457Z,97542.34
2023-07-02T15:57:28.120Z,97539.88
2023-07-02T15:59:57.917Z,97534.50
2023-07-02T16:02:26.653Z,97532.81
2023-07-02T16:04:55.232Z,97537.19
2023-07-02T16:07:25.136Z,97530.75
2023-07-02T16:09:53.567Z,97537.78
2023-07-02T16:12:22.220Z,97535.69
2023-07-02T16:14:50.764Z,97541.91
2023-07-02T16:17:20.624Z,97544.41
2023-07-02T16:19:49.121Z,97550.25
2023-07-02T16:22:18.122Z,97551.06
2023-07-02T16:24:46.891Z,97545.44
2023-07-02T16:27:15.800Z,97552.72
2023-07-02T16:29:46.017Z,97552.94
2023-07-02T16:32:15.101Z,97549.00
2023-07-02T16:34:46.284Z,97547.13
2023-07-02T16:37:14.811Z,97555.84
2023-07-02T16:39:43.384Z,97555.59
2023-07-02T16:42:13.504Z,97558.31
2023-07-02T16:44:42.166Z,97559.75
2023-07-02T16:47:10.593Z,97561.41
2023-07-02T16:49:39.190Z,97554.97
2023-07-02T16:52:09.985Z,97554.97
2023-07-02T16:54:39.731Z,97562.25
2023-07-02T16:57:08.876Z,97560.38
2023-07-02T16:59:38.948Z,97569.28
2023-07-02T17:02:09.706Z,97572.81
2023-07-02T17:04:38.448Z,97570.94
2023-07-02T17:07:09.835Z,97575.50
2023-07-02T17:09:41.283Z,97577.38
2023-07-02T17:12:13.141Z,97573.63
2023-07-02T17:14:41.720Z,97572.38
2023-07-02T17:17:11.709Z,97580.47
2023-07-02T17:19:41.693Z,97572.59
2023-07-02T17:22:13.758Z,97582.97
2023-07-02T17:24:44.430Z,97586.50
2023-07-02T17:27:14.047Z,97586.72
2023-07-02T17:29:42.928Z,97587.53
2023-07-02T17:32:12.083Z,97588.38
2023-07-02T17:34:40.574Z,97595.63
2023-07-02T17:37:11.291Z,97590.25
2023-07-02T17:39:39.834Z,97584.03
2023-07-02T17:42:09.282Z,97600.41
2023-07-02T17:44:39.407Z,97600.22
2023-07-02T17:47:09.868Z,97590.25
2023-07-02T17:49:39.928Z,97595.00
2023-07-02T17:52:12.105Z,97592.75
2023-07-02T17:54:42.265Z,97603.53
2023-07-02T17:57:11.473Z,97599.78
2023-07-02T17:59:39.930Z,97601.47
2023-07-02T18:02:09.540Z,97608.50
2023-07-02T18:04:38.945Z,97608.31
2023-07-02T18:07:11.685Z,97600.22
2023-07-02T18:09:41.252Z,97612.66
2023-07-02T18:12:11.027Z,97615.53
2023-07-02T18:14:42.182Z,97611.81
2023-07-02T18:17:10.790Z,97614.53
2023-07-02T18:19:39.446Z,97612.66
2023-07-02T18:22:08.132Z,97616.59
2023-07-02T18:24:39.576Z,97616.41
2023-07-02T18:27:09.062Z,97620.53
2023-07-02T18:29:38.742Z,97613.47
2023-07-02T18:32:09.830Z,97611.81
2023-07-02T18:34:40.635Z,97621.56
2023-07-02T18:37:11.096Z,97624.25
2023-07-02T18:39:43.878Z,97618.25
2023-07-02T18:42:12.648Z,97627.19
2023-07-02T18:44:41.589Z,97627.19
2023-07-02T18:47:11.735Z,97626.34
2023-07-02T18:49:40.474Z,97629.25
2023-07-02T18:52:11.459Z,97638.38
2023-07-02T18:54:41.630Z,97629.47
2023-07-02T18:57:11.245Z,97636.53
2023-07-02T18:59:39.913Z,97643.78
2023-07-02T19:02:11.050Z,97650.03
2023-07-02T19:04:39.675Z,97656.44
2023-07-02T19:07:08.153Z,97653.72
2023-07-02T19:09:37.326Z,97659.13
2023-07-02T19:12:09.157Z,97654.78
2023-07-02T19:14:39.380Z,97662.25
2023-07-02T19:17:08.882Z,97664.75
2023-07-02T19:19:38.647Z,97666.00
2023-07-02T19:22:07.696Z,97674.69
2023-07-02T19:24:36.154Z,97679.06
2023-07-02T19:27:07.741Z,97684.47
2023-07-02T19:29:37.126Z,97687.16
2023-07-02T19:32:06.437Z,97686.34
2023-07-02T19:34:36.129Z,97690.88
2023-07-02T19:37:06.327Z,97690.88
2023-07-02T19:39:35.148Z,97693.56
2023-07-02T19:42:03.668Z,97697.13
2023-07-02T19:44:33.591Z,97698.97
2023-07-02T19:47:02.109Z,97708.13
2023-07-02T19:49:31.286Z,97708.94
2023-07-02T19:51:59.734Z,97713.31
2023-07-02T19:54:28.419Z,97714.31
2023-07-02T19:56:59.345Z,97715.16
2023-07-02T19:59:28.668Z,97717.03
2023-07-02T20:01:58.435Z,97724.53
2023-07-02T20:04:30.858Z,97720.16
2023-07-02T20:06:59.542Z,97727.81
2023-07-02T20:09:28.111Z,97722.44
2023-07-02T20:11:56.651Z,97715.56
2023-07-02T20:14:25.158Z,97730.13
2023-07-02T20:16:53.749Z,97735.91
2023-07-02T20:19:23.613Z,97737.78
2023-07-02T20:21:56.006Z,97738.84
2023-07-02T20:24:24.605Z,97746.94
2023-07-02T20:26:53.582Z,97747.94
2023-07-02T20:29:22.023Z,97749.81
2023-07-02T20:31:51.501Z,97754.38
2023-07-02T20:34:21.630Z,97746.28
2023-07-02T20:36:54.942Z,97751.69
2023-07-02T20:39:24.671Z,97750.88
2023-07-02T20:41:55.669Z,97744.44
2023-07-02T20:44:24.190Z,97751.28
2023-07-02T20:46:52.678Z,97755.84
2023-07-02T20:49:22.332Z,97756.25
2023-07-02T20:51:52.295Z,97759.78
2023-07-02T20:54:21.001Z,97767.88
2023-07-02T20:56:50.130Z,97769.31
2023-07-02T20:59:18.586Z,97773.25
2023-07-02T21:01:47.120Z,97779.91
2023-07-02T21:04:15.776Z,97777.22
2023-07-02T21:06:44.224Z,97774.94
2023-07-02T21:09:16.141Z,97782.19
2023-07-02T21:11:45.180Z,97775.94
2023-07-02T21:14:13.677Z,97779.50
2023-07-02T21:16:42.102Z,97773.88
2023-07-02T21:19:10.558Z,97780.72
2023-07-02T21:21:40.328Z,97774.09
2023-07-02T21:24:09.216Z,97777.41
2023-07-02T21:26:38.980Z,97779.28
2023-07-02T21:29:07.530Z,97792.16
2023-07-02T21:31:36.214Z,97804.00
2023-07-02T21:34:04.841Z,97802.31
2023-07-02T21:36:33.393Z,97806.69
2023-07-02T21:39:01.919Z,97811.22
2023-07-02T21:41:30.432Z,97804.19
2023-07-02T21:44:00.440Z,97810.63
2023-07-02T21:46:29.034Z,97811.44
2023-07-02T21:48:57.452Z,97809.38
2023-07-02T21:51:26.012Z,97815.81
2023-07-02T21:53:54.455Z,97818.91
2023-07-02T21:56:22.943Z,97827.00
2023-07-02T21:58:51.436Z,97827.81
2023-07-02T22:01:21.309Z,97832.22
2023-07-02T22:03:50.078Z,97825.94
2023-07-02T22:06:19.221Z,97833.03
2023-07-02T22:08:47.735Z,97845.06
2023-07-02T22:11:22.447Z,97838.84
2023-07-02T22:13:52.189Z,97836.75
2023-07-02T22:16:22.093Z,97843.81
2023-07-02T22:18:52.271Z,97846.53
2023-07-02T22:21:20.704Z,97839.25
2023-07-02T22:23:49.412Z,97837.38
2023-07-02T22:26:17.996Z,97845.47
2023-07-02T22:28:47.589Z,97841.94
2023-07-02T22:31:16.099Z,97849.22
2023-07-02T22:33:45.945Z,97849.22
2023-07-02T22:36:14.618Z,97839.25
2023-07-02T22:38:43.105Z,97841.94
2023-07-02T22:41:11.542Z,97843.81
2023-07-02T22:43:40.003Z,97841.13
2023-07-02T22:46:08.584Z,97840.31
2023-07-02T22:48:37.454Z,97838.44
2023-07-02T22:51:07.290Z,97836.75
2023-07-02T22:53:35.738Z,97840.31
2023-07-02T22:56:11.542Z,97837.78
2023-07-02T22:58:39.997Z,97837.97
2023-07-02T23:01:08.987Z,97832.81
2023-07-02T23:03:37.772Z,97840.91
2023-07-02T23:06:07.969Z,97839.03
2023-07-02T23:08:36.411Z,97840.91
2023-07-02T23:11:04.890Z,97846.72
2023-07-02T23:13:33.533Z,97840.28
2023-07-02T23:16:03.812Z,97841.94
2023-07-02T23:18:35.526Z,97843.59
2023-07-02T23:21:06.470Z,97843.59
2023-07-02T23:23:36.394Z,97847.94
2023-07-02T23:26:04.859Z,97845.47
2023-07-02T23:28:35.068Z,97853.75
2023-07-02T23:31:05.948Z,97841.09
2023-07-02T23:33:34.632Z,97846.50
2023-07-02T23:36:03.450Z,97842.56
2023-07-02T23:38:32.115Z,97847.53
2023-07-02T23:41:02.055Z,97836.75
2023-07-02T23:43:30.533Z,97831.53
2023-07-02T23:45:59.038Z,97836.94
2023-07-02T23:48:27.517Z,97845.03
2023-07-02T23:50:56.006Z,97836.34
2023-07-02T23:53:24.383Z,97852.53
2023-07-02T23:55:53.210Z,97832.78
2023-07-02T23:58:23.145Z,97837.97
